Time;durP1;ratioP1;P1;durP2;ratioP2;P2;SDS_P1;SDS_P2;PMS_P1;PMS_P2;Temp;Humidity;BMP_temperature;BMP_pressure;BME280_temperature;BME280_humidity;BME280_pressure;Samples;Min_cycle;Max_cycle;Signal;HPM_P1;HPM_P2
2021/05/11 00:01:52;;;;;;;8.35;6.05;;;13.00;99.90;;;;;;6239975;23;20020;-87
2021/05/11 00:04:17;;;;;;;7.63;6.90;;;13.00;99.90;;;;;;6241661;23;20017;-87
2021/05/11 00:06:43;;;;;;;14.43;7.32;;;13.00;99.90;;;;;;6190213;23;20422;-87
2021/05/11 00:09:09;;;;;;;14.73;7.65;;;13.00;99.90;;;;;;6240686;23;20082;-87
2021/05/11 00:11:35;;;;;;;11.27;7.50;;;13.00;99.90;;;;;;6242628;23;20023;-87
2021/05/11 00:14:03;;;;;;;10.40;6.70;;;13.00;99.90;;;;;;6241319;23;20020;-87
2021/05/11 00:16:29;;;;;;;13.18;6.55;;;13.00;99.90;;;;;;6191096;23;20035;-87
2021/05/11 00:18:56;;;;;;;10.43;7.30;;;13.00;99.90;;;;;;6189451;23;20086;-87
2021/05/11 00:21:21;;;;;;;7.75;6.50;;;13.00;99.90;;;;;;6241765;23;20099;-87
2021/05/11 00:23:47;;;;;;;8.30;6.55;;;13.00;99.90;;;;;;6240802;23;20066;-87
2021/05/11 00:29:54;;;;;;;7.70;5.80;;;13.00;99.90;;;;;;6206546;22;20094;-88
2021/05/11 00:32:20;;;;;;;11.63;6.05;;;13.10;99.90;;;;;;6191626;23;20016;-86
2021/05/11 00:34:45;;;;;;;9.80;7.30;;;13.00;99.90;;;;;;6210268;23;20371;-88
2021/05/11 00:37:11;;;;;;;11.30;7.43;;;13.10;99.90;;;;;;6184173;23;20016;-87
2021/05/11 00:39:37;;;;;;;9.65;7.28;;;13.10;99.90;;;;;;6161049;23;20383;-89
2021/05/11 00:42:03;;;;;;;7.68;6.40;;;13.10;99.90;;;;;;6186578;23;20447;-87
2021/05/11 00:44:29;;;;;;;15.48;7.50;;;13.10;99.90;;;;;;6209970;23;20016;-88
2021/05/11 00:47:05;;;;;;;8.95;8.05;;;13.10;99.90;;;;;;6160613;23;20017;-87
2021/05/11 00:49:33;;;;;;;9.80;7.30;;;13.10;99.90;;;;;;6209600;23;20024;-87
2021/05/11 00:52:00;;;;;;;8.20;7.28;;;13.10;99.90;;;;;;6210909;23;20099;-87
2021/05/11 00:54:27;;;;;;;9.45;7.20;;;13.20;99.90;;;;;;6211727;23;20484;-87
2021/05/11 00:56:55;;;;;;;10.73;9.02;;;13.20;99.90;;;;;;6210630;23;20020;-88
2021/05/11 00:59:25;;;;;;;9.98;6.65;;;13.10;99.90;;;;;;6185261;23;20017;-86
2021/05/11 01:01:52;;;;;;;12.43;8.93;;;13.20;99.90;;;;;;6212174;23;20039;-86
2021/05/11 01:04:18;;;;;;;6.60;5.72;;;13.20;99.90;;;;;;6185871;23;20022;-87
2021/05/11 01:06:45;;;;;;;9.63;8.70;;;13.10;99.90;;;;;;6186077;23;20021;-87
2021/05/11 01:09:11;;;;;;;10.15;8.93;;;13.10;99.90;;;;;;6185074;23;20043;-89
2021/05/11 01:11:37;;;;;;;11.35;9.05;;;13.10;99.90;;;;;;6212183;23;20025;-89
2021/05/11 01:14:04;;;;;;;13.82;8.77;;;13.10;99.90;;;;;;6212835;23;20342;-87
2021/05/11 01:16:31;;;;;;;10.90;8.50;;;13.10;99.90;;;;;;6212029;23;20016;-87
2021/05/11 01:19:23;;;;;;;11.05;8.65;;;13.10;99.90;;;;;;6210526;23;20024;-87
2021/05/11 01:21:53;;;;;;;13.13;8.10;;;13.10;99.90;;;;;;6211745;23;20017;-86
2021/05/11 01:24:55;;;;;;;12.45;9.25;;;13.10;99.90;;;;;;6196107;23;20020;-87
2021/05/11 01:27:59;;;;;;;9.98;8.95;;;13.10;99.90;;;;;;6185908;23;20019;-88
2021/05/11 01:46:29;;;;;;;21.00;12.75;;;13.10;99.90;;;;;;6213213;23;20108;-87
2021/05/11 01:51:26;;;;;;;20.00;13.38;;;12.90;99.90;;;;;;6212805;23;20231;-87
2021/05/11 02:23:10;;;;;;;29.05;16.50;;;12.60;99.90;;;;;;6220982;23;20023;-88
2021/05/11 02:25:36;;;;;;;28.30;14.88;;;12.60;99.90;;;;;;6211735;23;20092;-89
2021/05/11 02:28:02;;;;;;;29.83;15.88;;;12.60;99.90;;;;;;6211442;23;20437;-91
2021/05/11 02:30:28;;;;;;;18.02;11.50;;;12.60;99.90;;;;;;6211964;23;20021;-88
2021/05/11 02:32:53;;;;;;;27.88;12.65;;;12.60;99.90;;;;;;6187032;23;20084;-88
2021/05/11 02:35:20;;;;;;;21.13;13.88;;;12.60;99.90;;;;;;6211945;23;20388;-90
2021/05/11 02:37:46;;;;;;;17.08;9.98;;;12.50;99.90;;;;;;6189356;23;20487;-88
2021/05/11 02:40:18;;;;;;;14.38;9.18;;;12.50;99.90;;;;;;6213549;23;20020;-87
2021/05/11 02:42:45;;;;;;;15.20;8.23;;;12.50;99.90;;;;;;6213097;23;20317;-89
2021/05/11 02:45:13;;;;;;;11.68;8.25;;;12.50;99.90;;;;;;6189166;23;20324;-88
2021/05/11 02:47:49;;;;;;;11.70;8.18;;;12.40;99.90;;;;;;6212956;23;20016;-88
2021/05/11 02:50:17;;;;;;;9.48;6.25;;;12.40;99.90;;;;;;6212958;23;20013;-89
2021/05/11 02:52:44;;;;;;;6.75;4.53;;;12.40;99.90;;;;;;6214448;23;20021;-88
2021/05/11 02:55:11;;;;;;;6.03;3.00;;;12.40;99.90;;;;;;6213166;23;20016;-89
2021/05/11 02:57:37;;;;;;;6.07;3.00;;;12.30;99.90;;;;;;6186785;23;20092;-88
2021/05/11 03:00:07;;;;;;;6.50;3.35;;;12.30;99.90;;;;;;6216575;23;20473;-86
2021/05/11 03:02:33;;;;;;;8.05;3.47;;;12.20;99.90;;;;;;6214085;23;20021;-87
2021/05/11 03:04:58;;;;;;;13.07;3.35;;;12.20;99.90;;;;;;6215210;23;20127;-86
2021/05/11 03:07:24;;;;;;;8.60;3.80;;;12.20;99.90;;;;;;6188637;23;20355;-87
2021/05/11 03:09:50;;;;;;;11.02;5.43;;;12.20;99.90;;;;;;6163628;23;20071;-87
2021/05/11 03:12:17;;;;;;;15.75;5.50;;;12.20;99.90;;;;;;6215532;23;20454;-88
2021/05/11 03:14:44;;;;;;;13.23;6.43;;;12.20;99.90;;;;;;6215250;23;20017;-86
2021/05/11 03:17:30;;;;;;;13.93;5.60;;;12.20;99.90;;;;;;6213099;23;20059;-88
2021/05/11 03:19:55;;;;;;;14.02;5.78;;;12.10;99.90;;;;;;6214608;23;20017;-87
2021/05/11 03:22:21;;;;;;;12.05;5.90;;;12.10;99.90;;;;;;6214507;23;20016;-91
2021/05/11 03:24:47;;;;;;;19.95;7.35;;;12.10;99.90;;;;;;6214580;23;20032;-91
2021/05/11 03:27:15;;;;;;;14.70;6.32;;;12.10;99.90;;;;;;6212085;23;20104;-91
2021/05/11 03:29:42;;;;;;;17.00;6.43;;;12.10;99.90;;;;;;6187337;23;20040;-90
2021/05/11 03:32:08;;;;;;;27.17;8.65;;;12.00;99.90;;;;;;6212543;23;20029;-89
2021/05/11 03:34:35;;;;;;;36.00;9.02;;;12.10;99.90;;;;;;6186963;23;20048;-87
2021/05/11 03:37:02;;;;;;;30.25;7.82;;;12.00;99.90;;;;;;6188269;23;20020;-88
2021/05/11 03:39:31;;;;;;;27.40;9.95;;;12.00;99.90;;;;;;6212287;23;20020;-88
2021/05/11 03:42:01;;;;;;;30.45;11.15;;;12.00;99.90;;;;;;6212909;23;20196;-89
2021/05/11 03:44:30;;;;;;;36.22;12.20;;;12.00;99.90;;;;;;6162440;23;20486;-88
2021/05/11 03:46:56;;;;;;;34.63;13.25;;;12.00;99.90;;;;;;6186996;23;20300;-88
2021/05/11 03:49:22;;;;;;;28.90;13.13;;;12.00;99.90;;;;;;6210995;23;20493;-91
2021/05/11 03:51:48;;;;;;;30.05;14.35;;;12.00;99.90;;;;;;6211050;23;20024;-88
2021/05/11 03:54:14;;;;;;;27.15;12.80;;;12.00;99.90;;;;;;6186362;23;20514;-88
2021/05/11 03:56:40;;;;;;;27.10;12.77;;;12.10;99.90;;;;;;6162241;23;20055;-87
2021/05/11 03:59:06;;;;;;;17.90;9.55;;;12.00;99.90;;;;;;6213691;23;20021;-87
2021/05/11 04:01:33;;;;;;;23.83;12.90;;;12.10;99.90;;;;;;6212083;23;20021;-87
2021/05/11 04:03:59;;;;;;;34.88;16.35;;;12.00;99.90;;;;;;6188079;23;20017;-87
2021/05/11 04:06:25;;;;;;;27.38;13.73;;;12.10;99.90;;;;;;6213921;23;20087;-91
2021/05/11 04:13:59;;;;;;;26.27;11.73;;;12.00;99.90;;;;;;6222846;23;20074;-87
2021/05/11 04:16:30;;;;;;;34.15;15.80;;;12.10;99.90;;;;;;6167434;23;20410;-89
2021/05/11 04:18:56;;;;;;;;;;;12.10;99.90;;;;;;6223485;23;20078;-87
2021/05/11 04:21:23;;;;;;;31.02;13.50;;;12.10;99.90;;;;;;6214509;23;20250;-88
2021/05/11 04:23:51;;;;;;;31.25;13.50;;;12.10;99.90;;;;;;6211457;23;20119;-87
2021/05/11 04:26:18;;;;;;;43.20;18.63;;;12.10;99.90;;;;;;6214603;23;20020;-89
2021/05/11 04:28:45;;;;;;;31.15;15.10;;;12.10;99.90;;;;;;6211662;23;20093;-87
2021/05/11 04:31:12;;;;;;;34.40;15.90;;;12.20;99.90;;;;;;6212471;23;20017;-88
2021/05/11 04:33:38;;;;;;;37.42;16.73;;;12.20;99.90;;;;;;6186667;23;20025;-88
2021/05/11 04:36:04;;;;;;;62.95;20.55;;;12.20;99.90;;;;;;6212809;23;20427;-87
2021/05/11 04:38:30;;;;;;;38.67;15.60;;;12.30;99.90;;;;;;6213099;23;20017;-92
2021/05/11 04:40:56;;;;;;;37.38;17.10;;;12.30;99.90;;;;;;6214401;23;20027;-88
2021/05/11 04:43:27;;;;;;;55.45;22.10;;;12.30;99.90;;;;;;6212830;23;20052;-89
2021/05/11 04:48:38;;;;;;;65.20;23.50;;;12.30;99.90;;;;;;6212831;23;20020;-91
2021/05/11 04:51:04;;;;;;;72.82;26.58;;;12.30;99.90;;;;;;6186948;23;20008;-90
2021/05/11 04:53:30;;;;;;;51.88;21.10;;;12.30;99.90;;;;;;6186810;23;20024;-92
2021/05/11 04:55:56;;;;;;;37.58;20.42;;;12.30;99.90;;;;;;6213956;23;20071;-89
2021/05/11 04:58:22;;;;;;;45.83;20.98;;;12.30;99.90;;;;;;6212663;23;20044;-90
2021/05/11 05:00:49;;;;;;;40.80;19.40;;;12.30;99.90;;;;;;6162399;23;20024;-90
2021/05/11 05:03:16;;;;;;;37.25;17.42;;;12.40;99.90;;;;;;6187130;23;20016;-89
2021/05/11 05:05:44;;;;;;;28.33;14.35;;;12.40;99.90;;;;;;6186770;23;20043;-90
2021/05/11 05:08:10;;;;;;;16.67;9.57;;;12.40;99.90;;;;;;6211623;23;20017;-89
2021/05/11 05:10:36;;;;;;;17.38;6.00;;;12.40;99.90;;;;;;6212292;23;20035;-89
2021/05/11 05:13:02;;;;;;;8.68;5.50;;;12.30;99.90;;;;;;6186132;23;20024;-89
2021/05/11 05:15:28;;;;;;;14.68;5.32;;;12.30;99.90;;;;;;6210947;23;20450;-90
2021/05/11 05:17:53;;;;;;;14.93;5.38;;;12.30;99.90;;;;;;6186866;23;20087;-89
2021/05/11 05:20:19;;;;;;;15.25;5.68;;;12.30;99.90;;;;;;6213502;23;20040;-89
2021/05/11 05:22:45;;;;;;;21.55;6.18;;;12.20;99.90;;;;;;6212438;23;20024;-89
2021/05/11 05:25:19;;;;;;;23.35;7.07;;;12.30;99.90;;;;;;6162100;23;20446;-89
2021/05/11 05:28:27;;;;;;;13.30;6.13;;;12.30;99.90;;;;;;6209869;23;20017;-89
2021/05/11 05:30:34;;;;;;;14.65;6.28;;;12.30;99.90;;;;;;6201948;23;20520;-92
2021/05/11 05:33:03;;;;;;;13.43;6.65;;;12.30;99.90;;;;;;6211119;23;20012;-89
2021/05/11 05:35:32;;;;;;;16.73;6.78;;;12.30;99.90;;;;;;6210856;23;20112;-94
2021/05/11 05:37:58;;;;;;;16.20;6.78;;;12.30;99.90;;;;;;6212275;23;20462;-89
2021/05/11 05:40:28;;;;;;;11.63;6.13;;;12.30;99.90;;;;;;6187783;23;20027;-88
2021/05/11 05:42:54;;;;;;;12.15;5.53;;;12.30;99.90;;;;;;6210947;23;20017;-88
2021/05/11 05:45:20;;;;;;;4.60;3.20;;;12.30;99.90;;;;;;6187146;23;20020;-89
2021/05/11 05:47:52;;;;;;;9.18;2.63;;;12.30;99.90;;;;;;6184343;23;20024;-90
2021/05/11 05:50:24;;;;;;;8.65;3.72;;;12.30;99.90;;;;;;6186676;23;20013;-90
2021/05/11 05:53:03;;;;;;;7.45;2.72;;;12.20;99.90;;;;;;6165871;23;20591;-89
2021/05/11 05:55:30;;;;;;;10.02;2.05;;;12.20;99.90;;;;;;6210463;23;20047;-90
2021/05/11 05:57:57;;;;;;;7.60;2.17;;;12.20;99.90;;;;;;6211263;23;20095;-89
2021/05/11 06:00:24;;;;;;;7.45;2.15;;;12.20;99.90;;;;;;6212118;23;20083;-89
2021/05/11 06:05:56;;;;;;;7.40;2.10;;;12.20;99.90;;;;;;6221598;23;20024;-88
2021/05/11 06:08:22;;;;;;;6.95;2.55;;;12.20;99.90;;;;;;6212785;23;20016;-88
2021/05/11 06:10:54;;;;;;;9.43;2.88;;;12.20;99.90;;;;;;6212735;23;20043;-88
2021/05/11 06:13:24;;;;;;;8.20;2.20;;;12.30;99.90;;;;;;6213739;23;20017;-87
2021/05/11 06:18:37;;;;;;;7.72;2.42;;;12.30;99.90;;;;;;6213870;23;20443;-88
2021/05/11 06:21:05;;;;;;;3.60;2.30;;;12.30;99.90;;;;;;6213955;23;20067;-87
2021/05/11 06:23:31;;;;;;;10.60;3.40;;;12.40;99.90;;;;;;6214123;23;20020;-89
2021/05/11 06:26:00;;;;;;;4.80;2.97;;;12.40;99.90;;;;;;6189217;23;20025;-88
2021/05/11 06:28:26;;;;;;;7.65;3.00;;;12.40;99.90;;;;;;6215282;23;20047;-89
2021/05/11 06:30:54;;;;;;;9.55;3.58;;;12.50;99.90;;;;;;6188434;23;20477;-88
2021/05/11 06:33:22;;;;;;;7.03;3.88;;;12.50;99.90;;;;;;6213659;23;20510;-89
2021/05/11 06:35:52;;;;;;;6.20;3.58;;;12.50;99.90;;;;;;6215020;23;20012;-88
2021/05/11 06:38:18;;;;;;;14.73;4.63;;;12.60;99.90;;;;;;6214942;23;20021;-90
2021/05/11 06:40:45;;;;;;;10.07;4.20;;;12.60;99.90;;;;;;6211964;23;20027;-89
2021/05/11 06:43:11;;;;;;;8.40;4.70;;;12.60;99.90;;;;;;6164183;23;20021;-89
2021/05/11 06:48:23;;;;;;;13.10;5.47;;;12.70;99.90;;;;;;6224721;23;20092;-90
2021/05/11 06:53:38;;;;;;;12.88;7.30;;;12.70;99.90;;;;;;6225808;23;20021;-89
2021/05/11 06:56:07;;;;;;;12.10;8.27;;;12.80;99.90;;;;;;6216197;23;20478;-89
2021/05/11 06:58:33;;;;;;;16.67;9.77;;;12.90;99.90;;;;;;6214258;23;20017;-88
2021/05/11 07:00:58;;;;;;;17.58;9.77;;;12.90;99.90;;;;;;6163425;23;20343;-89
2021/05/11 07:03:24;;;;;;;14.25;10.18;;;12.90;99.90;;;;;;6214862;23;20095;-89
2021/05/11 07:05:52;;;;;;;16.33;9.32;;;12.90;99.90;;;;;;6214885;23;20043;-89
2021/05/11 07:10:59;;;;;;;15.82;9.05;;;12.90;99.90;;;;;;6215007;23;20094;-88
2021/05/11 07:13:25;;;;;;;11.32;8.32;;;12.90;99.90;;;;;;6215400;23;20021;-87
2021/05/11 07:15:51;;;;;;;16.60;8.85;;;13.00;99.90;;;;;;6163971;23;20024;-87
2021/05/11 07:18:19;;;;;;;16.42;9.25;;;13.10;99.90;;;;;;6214466;23;20012;-87
2021/05/11 07:20:54;;;;;;;12.38;8.82;;;13.10;99.90;;;;;;6213687;23;20024;-88
2021/05/11 07:23:21;;;;;;;19.20;10.45;;;13.10;99.90;;;;;;6223806;23;20432;-87
2021/05/11 07:26:36;;;;;;;17.70;12.60;;;13.20;99.90;;;;;;6211708;23;20183;-88
2021/05/11 07:31:21;;;;;;;22.38;15.43;;;13.30;99.90;;;;;;6217238;23;20016;-87
2021/05/11 07:33:51;;;;;;;21.73;15.15;;;13.30;99.90;;;;;;6211780;23;20509;-88
2021/05/11 07:36:17;;;;;;;25.42;16.75;;;13.40;99.90;;;;;;6197588;23;20091;-88
2021/05/11 07:38:44;;;;;;;20.63;15.95;;;13.50;99.90;;;;;;6212191;23;20473;-90
2021/05/11 07:41:13;;;;;;;19.75;14.63;;;13.50;99.90;;;;;;6213597;23;20071;-88
2021/05/11 07:43:41;;;;;;;17.00;13.13;;;13.60;99.90;;;;;;6211427;23;20451;-89
2021/05/11 07:51:44;;;;;;;16.98;11.15;;;13.70;99.90;;;;;;6213157;23;20024;-88
2021/05/11 08:15:57;;;;;;;5.13;4.03;;;14.10;99.90;;;;;;6200740;23;20066;-93
2021/05/11 08:29:08;;;;;;;6.47;2.60;;;14.50;99.90;;;;;;6171415;23;20423;-91
2021/05/11 08:31:35;;;;;;;3.40;1.67;;;14.70;99.90;;;;;;6188612;23;20028;-92
2021/05/11 08:34:01;;;;;;;2.50;1.73;;;14.70;99.90;;;;;;6214131;23;20009;-92
2021/05/11 08:36:27;;;;;;;3.83;1.70;;;14.80;99.90;;;;;;6214703;23;20163;-91
2021/05/11 08:38:56;;;;;;;1.60;1.50;;;14.80;99.90;;;;;;6213963;23;20490;-92
2021/05/11 08:41:23;;;;;;;3.20;1.80;;;14.90;99.90;;;;;;6190802;23;20020;-92
2021/05/11 08:43:49;;;;;;;2.80;1.83;;;15.00;99.90;;;;;;6190079;23;20017;-91
2021/05/11 08:46:16;;;;;;;1.20;1.05;;;15.00;99.90;;;;;;6186252;23;20610;-88
2021/05/11 08:48:41;;;;;;;2.47;1.20;;;15.10;99.90;;;;;;6210099;23;20016;-89
2021/05/11 08:51:14;;;;;;;3.97;1.45;;;15.00;99.90;;;;;;6212262;23;20032;-89
2021/05/11 09:05:51;;;;;;;2.58;0.90;;;15.20;99.90;;;;;;6224186;23;20435;-89
2021/05/11 09:24:11;;;;;;;0.93;0.90;;;16.00;99.90;;;;;;6223775;23;20464;-90
2021/05/11 10:36:49;;;;;;;1.55;0.60;;;20.10;99.90;;;;;;6211428;23;20438;-93
2021/05/11 10:42:48;;;;;;;1.92;0.80;;;20.10;99.90;;;;;;6213293;23;20469;-91
2021/05/11 10:48:16;;;;;;;1.02;0.60;;;20.10;99.90;;;;;;6211969;23;20031;-92
2021/05/11 10:50:47;;;;;;;2.58;0.50;;;20.30;99.90;;;;;;6212245;23;20024;-90
2021/05/11 10:54:03;;;;;;;1.52;0.75;;;20.50;99.90;;;;;;6210475;23;20048;-91
2021/05/11 10:56:36;;;;;;;2.53;0.80;;;20.70;99.90;;;;;;6174791;23;20020;-89
2021/05/11 10:59:34;;;;;;;2.50;1.27;;;20.40;99.90;;;;;;6220867;23;20025;-91
2021/05/11 11:02:45;;;;;;;0.70;0.60;;;19.70;99.90;;;;;;6213529;23;20023;-89
2021/05/11 11:05:03;;;;;;;0.85;0.50;;;19.20;99.90;;;;;;6209887;23;20020;-89
2021/05/11 11:07:34;;;;;;;1.20;0.77;;;19.30;99.90;;;;;;6187598;23;20044;-89
2021/05/11 11:10:02;;;;;;;1.55;0.60;;;19.40;99.90;;;;;;6187257;23;20032;-89
2021/05/11 11:12:37;;;;;;;2.90;0.90;;;19.20;99.90;;;;;;6211676;23;20027;-88
2021/05/11 11:15:18;;;;;;;3.40;0.90;;;18.90;99.90;;;;;;6223031;23;20451;-93
2021/05/11 11:17:49;;;;;;;3.55;1.05;;;18.50;99.90;;;;;;6221977;23;20493;-89
2021/05/11 11:20:16;;;;;;;0.90;0.70;;;18.60;99.90;;;;;;6219660;23;20072;-89
2021/05/11 11:25:40;;;;;;;2.35;0.70;;;19.10;99.90;;;;;;6211726;23;20067;-89
2021/05/11 11:28:06;;;;;;;1.00;0.70;;;19.30;99.90;;;;;;6186569;23;20378;-91
2021/05/11 11:30:32;;;;;;;0.82;0.63;;;19.50;99.90;;;;;;6210921;23;20021;-89
2021/05/11 11:33:02;;;;;;;0.68;0.60;;;19.60;99.90;;;;;;6161012;23;20020;-90
2021/05/11 11:35:32;;;;;;;1.08;0.80;;;19.90;99.90;;;;;;6212335;23;20009;-89
2021/05/11 11:37:58;;;;;;;1.45;0.70;;;20.00;99.90;;;;;;6212860;23;20031;-89
2021/05/11 11:40:23;;;;;;;3.17;0.93;;;20.10;99.90;;;;;;6160381;23;20020;-89
2021/05/11 11:42:50;;;;;;;0.57;0.40;;;20.30;99.90;;;;;;6185946;23;20078;-90
2021/05/11 11:45:25;;;;;;;1.83;0.50;;;20.40;99.90;;;;;;6160893;23;20012;-89
2021/05/11 11:48:00;;;;;;;1.08;0.60;;;20.70;99.90;;;;;;6211212;23;20078;-91
2021/05/11 11:50:27;;;;;;;2.50;0.77;;;21.00;99.90;;;;;;6211854;23;20016;-89
2021/05/11 11:57:59;;;;;;;1.65;0.68;;;20.60;99.90;;;;;;6222430;23;20024;-89
2021/05/11 12:00:34;;;;;;;2.75;0.77;;;20.50;99.90;;;;;;6185396;23;20447;-91
2021/05/11 12:03:06;;;;;;;3.13;0.70;;;20.50;99.90;;;;;;6211392;23;20017;-90
2021/05/11 12:05:56;;;;;;;2.85;0.60;;;20.20;99.90;;;;;;6209899;23;20016;-90
2021/05/11 12:08:28;;;;;;;1.48;0.65;;;20.10;99.90;;;;;;6221102;23;20431;-90
2021/05/11 12:10:56;;;;;;;1.08;0.55;;;20.30;99.90;;;;;;6212140;23;20016;-91
2021/05/11 12:13:27;;;;;;;0.75;0.60;;;20.30;99.90;;;;;;6210213;23;20360;-92
2021/05/11 12:16:11;;;;;;;0.80;0.80;;;20.60;99.90;;;;;;6186598;23;20443;-89
2021/05/11 12:18:42;;;;;;;1.15;0.90;;;20.70;99.90;;;;;;6210652;23;20020;-89
2021/05/11 12:21:08;;;;;;;1.20;1.00;;;20.50;99.90;;;;;;6196768;23;20024;-89
2021/05/11 12:23:34;;;;;;;1.85;0.80;;;20.30;99.90;;;;;;6185176;23;20023;-89
2021/05/11 12:26:05;;;;;;;3.75;1.10;;;20.40;99.90;;;;;;6186290;23;20016;-90
2021/05/11 12:28:40;;;;;;;3.22;1.20;;;20.40;99.90;;;;;;6184529;23;20065;-89
2021/05/11 12:31:08;;;;;;;3.10;1.00;;;20.10;99.90;;;;;;6211775;23;20032;-90
2021/05/11 12:33:42;;;;;;;1.30;0.75;;;19.90;99.90;;;;;;6220512;23;20167;-90
2021/05/11 12:36:26;;;;;;;1.67;1.00;;;19.90;99.90;;;;;;6211329;23;20025;-90
2021/05/11 12:39:16;;;;;;;1.52;1.10;;;19.80;99.90;;;;;;6186132;23;20017;-89
2021/05/11 12:41:42;;;;;;;1.42;1.15;;;19.70;99.90;;;;;;6210985;23;20027;-90
2021/05/11 12:44:26;;;;;;;2.60;1.40;;;19.60;99.90;;;;;;6185870;23;20104;-90
2021/05/11 12:47:05;;;;;;;1.15;1.05;;;19.40;99.90;;;;;;6221354;23;20025;-90
2021/05/11 12:49:31;;;;;;;2.25;1.30;;;19.10;99.90;;;;;;6209714;23;20092;-90
2021/05/11 12:51:59;;;;;;;1.48;1.38;;;19.00;99.90;;;;;;6184754;23;20709;-91
2021/05/11 12:54:35;;;;;;;1.60;1.50;;;18.90;99.90;;;;;;6184836;23;20026;-89
2021/05/11 12:59:51;;;;;;;1.40;1.30;;;18.50;99.90;;;;;;6210820;23;20055;-90
2021/05/11 13:22:06;;;;;;;1.58;1.45;;;17.00;99.90;;;;;;6223160;23;20455;-89
2021/05/11 13:27:27;;;;;;;2.05;0.70;;;16.70;99.90;;;;;;6190772;23;20561;-89
2021/05/11 13:35:00;;;;;;;2.15;0.73;;;16.20;99.90;;;;;;6212730;23;20017;-90
2021/05/11 13:37:28;;;;;;;1.88;0.80;;;16.10;99.90;;;;;;6211493;23;20025;-92
2021/05/11 13:39:58;;;;;;;1.77;0.73;;;16.10;99.90;;;;;;6187904;23;20031;-91
2021/05/11 13:42:24;;;;;;;1.80;0.73;;;16.10;99.90;;;;;;6211336;23;20099;-91
2021/05/11 13:44:50;;;;;;;0.50;0.50;;;16.10;99.90;;;;;;6214194;23;20438;-91
2021/05/11 13:47:16;;;;;;;1.27;0.60;;;16.10;99.90;;;;;;6188241;23;20027;-90
2021/05/11 13:49:42;;;;;;;1.50;0.50;;;16.10;99.90;;;;;;6187442;23;20095;-91
2021/05/11 13:52:08;;;;;;;1.02;0.47;;;16.00;99.90;;;;;;6187657;23;20071;-91
2021/05/11 13:54:34;;;;;;;2.15;0.63;;;16.00;99.90;;;;;;6212328;23;20013;-91
2021/05/11 14:05:03;;;;;;;0.60;0.60;;;15.70;99.90;;;;;;6212245;23;20020;-91
2021/05/11 14:07:29;;;;;;;3.30;0.80;;;15.60;99.90;;;;;;6186438;23;20347;-90
2021/05/11 14:09:54;;;;;;;3.17;0.75;;;15.60;99.90;;;;;;6212210;23;20013;-91
2021/05/11 14:12:20;;;;;;;3.13;0.80;;;15.50;99.90;;;;;;6161738;23;20031;-91
2021/05/11 14:14:46;;;;;;;3.25;0.95;;;15.50;99.90;;;;;;6211257;23;20099;-91
2021/05/11 14:17:12;;;;;;;2.08;0.75;;;15.40;99.90;;;;;;6212224;23;20025;-91
2021/05/11 14:19:38;;;;;;;6.65;1.10;;;15.20;99.90;;;;;;6162590;23;20067;-93
2021/05/11 14:22:03;;;;;;;2.35;0.90;;;15.20;99.90;;;;;;6138731;23;20024;-91
2021/05/11 14:24:29;;;;;;;3.25;1.00;;;15.10;99.90;;;;;;6162709;23;20016;-92
2021/05/11 14:26:55;;;;;;;1.00;0.98;;;15.10;99.90;;;;;;6187402;23;20040;-91
2021/05/11 14:29:21;;;;;;;1.48;1.00;;;15.10;99.90;;;;;;6212476;23;20044;-90
2021/05/11 14:31:47;;;;;;;3.25;1.05;;;15.00;99.90;;;;;;6186786;23;20024;-91
2021/05/11 14:34:14;;;;;;;0.93;0.90;;;14.90;99.90;;;;;;6163313;23;20071;-91
2021/05/11 14:36:40;;;;;;;0.60;0.60;;;14.60;99.90;;;;;;6212459;23;20017;-91
2021/05/11 14:39:07;;;;;;;1.48;0.90;;;14.40;99.90;;;;;;6213006;23;20024;-92
2021/05/11 14:41:33;;;;;;;2.60;0.88;;;14.10;99.90;;;;;;6212384;23;20083;-90
2021/05/11 14:44:01;;;;;;;3.15;0.93;;;14.10;99.90;;;;;;6212379;23;20016;-92
2021/05/11 14:46:28;;;;;;;2.00;0.73;;;14.10;99.90;;;;;;6187432;23;20024;-96
2021/05/11 14:48:54;;;;;;;2.20;0.60;;;14.00;99.90;;;;;;6212310;23;20439;-90
2021/05/11 14:51:21;;;;;;;4.85;0.80;;;13.90;99.90;;;;;;6186943;23;20450;-93
2021/05/11 14:53:48;;;;;;;3.50;0.82;;;13.90;99.90;;;;;;6184924;23;20009;-91
2021/05/11 14:56:14;;;;;;;1.23;0.70;;;14.00;99.90;;;;;;6188677;23;20533;-93
2021/05/11 14:58:40;;;;;;;3.28;1.10;;;14.20;99.90;;;;;;6212362;23;20016;-90
2021/05/11 15:01:06;;;;;;;1.98;0.60;;;14.30;99.90;;;;;;6188577;23;20400;-93
2021/05/11 15:03:32;;;;;;;10.85;1.02;;;14.30;99.90;;;;;;6212307;23;20012;-90
2021/05/11 15:05:58;;;;;;;2.33;1.05;;;14.40;99.90;;;;;;6162876;23;20302;-92
2021/05/11 15:08:24;;;;;;;2.33;0.60;;;14.60;99.90;;;;;;6212942;23;20063;-91
2021/05/11 15:10:49;;;;;;;2.45;0.70;;;14.70;99.90;;;;;;6162991;23;20076;-95
2021/05/11 15:13:16;;;;;;;5.55;0.93;;;14.80;99.90;;;;;;6213716;23;20024;-92
2021/05/11 15:15:48;;;;;;;3.63;0.88;;;14.80;99.90;;;;;;6215096;23;20020;-90
2021/05/11 15:18:13;;;;;;;3.33;0.70;;;14.90;99.90;;;;;;6189388;23;20067;-92
2021/05/11 15:20:40;;;;;;;4.38;1.10;;;15.00;99.90;;;;;;6213457;23;20017;-91
2021/05/11 15:23:06;;;;;;;3.25;1.02;;;15.00;99.90;;;;;;6187973;23;20078;-91
2021/05/11 15:25:32;;;;;;;1.92;1.10;;;15.10;99.90;;;;;;6213368;23;20027;-94
2021/05/11 15:28:00;;;;;;;5.05;0.90;;;15.10;99.90;;;;;;6188987;23;20103;-93
2021/05/11 15:30:28;;;;;;;2.05;1.55;;;15.10;99.90;;;;;;6214521;23;20024;-91
2021/05/11 15:32:56;;;;;;;4.03;0.90;;;15.10;99.90;;;;;;6215255;23;20476;-93
2021/05/11 15:35:25;;;;;;;2.90;1.27;;;15.10;99.90;;;;;;6214991;23;20071;-94
2021/05/11 15:37:58;;;;;;;7.25;1.35;;;15.10;99.90;;;;;;6215189;23;20450;-91
2021/05/11 15:40:27;;;;;;;2.17;1.10;;;15.10;99.90;;;;;;6214224;23;20502;-91
2021/05/11 15:42:53;;;;;;;3.35;1.20;;;15.10;99.90;;;;;;6214476;23;20020;-92
2021/05/11 15:45:19;;;;;;;4.20;1.45;;;15.10;99.90;;;;;;6215009;23;20023;-92
2021/05/11 15:47:52;;;;;;;5.78;1.38;;;15.10;99.90;;;;;;6217012;23;20023;-91
2021/05/11 15:50:40;;;;;;;4.80;1.25;;;15.00;99.90;;;;;;6201041;23;20091;-92
2021/05/11 15:53:15;;;;;;;4.10;1.20;;;15.00;99.90;;;;;;6219421;23;20439;-92
2021/05/11 15:55:42;;;;;;;4.13;1.40;;;14.90;99.90;;;;;;6212246;23;20012;-91
2021/05/11 15:58:10;;;;;;;11.20;1.75;;;14.90;99.90;;;;;;6212363;23;20025;-91
2021/05/11 16:00:37;;;;;;;5.07;2.10;;;14.80;99.90;;;;;;6212064;23;20443;-93
2021/05/11 16:03:04;;;;;;;3.25;1.17;;;14.70;99.90;;;;;;6212362;23;20043;-91
2021/05/11 16:05:38;;;;;;;5.20;1.40;;;14.70;99.90;;;;;;6187324;23;20442;-91
2021/05/11 16:08:05;;;;;;;3.85;1.45;;;14.80;99.90;;;;;;6212530;23;20380;-91
2021/05/11 16:10:32;;;;;;;8.68;3.15;;;14.80;99.90;;;;;;6211596;23;20013;-92
2021/05/11 16:12:59;;;;;;;6.90;1.40;;;14.80;99.90;;;;;;6209855;23;20028;-91
2021/05/11 16:15:25;;;;;;;9.05;2.17;;;14.80;99.90;;;;;;6210921;23;20439;-91
2021/05/11 16:17:51;;;;;;;7.00;1.70;;;14.80;99.90;;;;;;6210947;23;20027;-89
2021/05/11 16:20:17;;;;;;;4.65;1.77;;;14.60;99.90;;;;;;6186691;23;20099;-90
2021/05/11 16:22:43;;;;;;;5.32;1.83;;;14.50;99.90;;;;;;6186563;23;20020;-90
2021/05/11 16:25:11;;;;;;;4.05;1.63;;;14.40;99.90;;;;;;6210323;23;20031;-89
2021/05/11 16:27:42;;;;;;;5.60;1.90;;;14.40;99.90;;;;;;6212341;23;20017;-92
2021/05/11 16:30:12;;;;;;;4.03;1.95;;;14.40;99.90;;;;;;6211403;23;20086;-89
2021/05/11 16:32:38;;;;;;;5.47;1.98;;;14.40;99.90;;;;;;6213197;23;20447;-92
2021/05/11 16:35:06;;;;;;;5.40;1.85;;;14.30;99.90;;;;;;6212046;23;20023;-90
2021/05/11 16:37:31;;;;;;;5.45;2.08;;;14.20;99.90;;;;;;6187354;23;20025;-89
2021/05/11 16:39:57;;;;;;;7.07;2.58;;;14.10;99.90;;;;;;6162021;23;20022;-89
2021/05/11 16:42:23;;;;;;;5.95;1.90;;;14.10;99.90;;;;;;6212077;23;20016;-90
2021/05/11 16:44:49;;;;;;;9.75;2.53;;;14.00;99.90;;;;;;6186958;23;20020;-89
2021/05/11 16:47:15;;;;;;;9.02;2.42;;;14.00;99.90;;;;;;6186863;23;20454;-89
2021/05/11 16:49:40;;;;;;;6.72;1.95;;;14.00;99.90;;;;;;6186457;23;20019;-91
2021/05/11 16:52:07;;;;;;;7.78;2.05;;;14.00;99.90;;;;;;6211499;23;20021;-89
2021/05/11 16:54:33;;;;;;;4.20;2.00;;;14.00;99.90;;;;;;6159900;23;20016;-89
2021/05/11 16:56:59;;;;;;;5.53;2.20;;;13.90;99.90;;;;;;6210749;23;20020;-89
2021/05/11 16:59:25;;;;;;;8.40;2.20;;;13.90;99.90;;;;;;6186989;23;20488;-89
2021/05/11 17:01:50;;;;;;;9.88;2.70;;;13.90;99.90;;;;;;6213382;23;20481;-89
2021/05/11 17:04:16;;;;;;;5.95;2.22;;;13.80;99.90;;;;;;6212636;23;20427;-89
2021/05/11 17:06:42;;;;;;;7.68;2.35;;;13.70;99.90;;;;;;6186798;23;20393;-92
2021/05/11 17:09:09;;;;;;;6.07;2.50;;;13.60;99.90;;;;;;6186795;23;20390;-91
2021/05/11 17:11:36;;;;;;;8.57;2.70;;;13.50;99.90;;;;;;6210339;23;20024;-89
2021/05/11 17:14:03;;;;;;;10.38;2.90;;;13.40;99.90;;;;;;6160908;23;20021;-90